sensor_id;sensor_type;location;lat;lon;timestamp;P1;durP1;ratioP1;P2;durP2;ratioP2
35917;SDS011;22011;59.912;30.300;2023-02-27T00:02:25;6.00;;;2.88;;
35917;SDS011;22011;59.912;30.300;2023-02-27T00:04:52;5.45;;;3.20;;
35917;SDS011;22011;59.912;30.300;2023-02-27T00:07:22;7.07;;;3.20;;
35917;SDS011;22011;59.912;30.300;2023-02-27T00:09:51;4.55;;;2.60;;
35917;SDS011;22011;59.912;30.300;2023-02-27T00:12:19;7.28;;;4.38;;
35917;SDS011;22011;59.912;30.300;2023-02-27T00:14:47;3.72;;;2.60;;
35917;SDS011;22011;59.912;30.300;2023-02-27T00:17:16;5.68;;;3.10;;
35917;SDS011;22011;59.912;30.300;2023-02-27T00:19:43;7.68;;;3.13;;
35917;SDS011;22011;59.912;30.300;2023-02-27T00:22:11;6.10;;;3.20;;
35917;SDS011;22011;59.912;30.300;2023-02-27T00:24:38;5.97;;;3.67;;
35917;SDS011;22011;59.912;30.300;2023-02-27T00:27:06;7.35;;;3.05;;
35917;SDS011;22011;59.912;30.300;2023-02-27T00:29:35;7.30;;;2.53;;
35917;SDS011;22011;59.912;30.300;2023-02-27T00:32:02;6.15;;;4.05;;
35917;SDS011;22011;59.912;30.300;2023-02-27T00:34:30;5.05;;;2.90;;
35917;SDS011;22011;59.912;30.300;2023-02-27T00:36:57;4.95;;;2.90;;
35917;SDS011;22011;59.912;30.300;2023-02-27T00:39:24;4.90;;;2.47;;
35917;SDS011;22011;59.912;30.300;2023-02-27T00:41:52;6.93;;;3.60;;
35917;SDS011;22011;59.912;30.300;2023-02-27T00:44:19;7.35;;;3.78;;
35917;SDS011;22011;59.912;30.300;2023-02-27T00:46:48;6.25;;;3.38;;
35917;SDS011;22011;59.912;30.300;2023-02-27T00:49:16;6.35;;;4.03;;
35917;SDS011;22011;59.912;30.300;2023-02-27T00:51:44;7.90;;;4.65;;
35917;SDS011;22011;59.912;30.300;2023-02-27T00:54:12;11.10;;;5.10;;
35917;SDS011;22011;59.912;30.300;2023-02-27T00:56:39;11.75;;;5.97;;
35917;SDS011;22011;59.912;30.300;2023-02-27T00:59:07;10.77;;;4.82;;
35917;SDS011;22011;59.912;30.300;2023-02-27T01:01:34;10.95;;;6.13;;
35917;SDS011;22011;59.912;30.300;2023-02-27T01:04:03;9.20;;;5.35;;
35917;SDS011;22011;59.912;30.300;2023-02-27T01:06:31;14.20;;;7.72;;
35917;SDS011;22011;59.912;30.300;2023-02-27T01:08:58;12.38;;;6.30;;
35917;SDS011;22011;59.912;30.300;2023-02-27T01:11:26;10.43;;;5.90;;
35917;SDS011;22011;59.912;30.300;2023-02-27T01:13:54;9.65;;;5.82;;
35917;SDS011;22011;59.912;30.300;2023-02-27T01:16:21;7.00;;;4.88;;
35917;SDS011;22011;59.912;30.300;2023-02-27T01:18:50;8.05;;;4.93;;
35917;SDS011;22011;59.912;30.300;2023-02-27T01:21:19;7.45;;;4.03;;
35917;SDS011;22011;59.912;30.300;2023-02-27T01:23:47;6.03;;;3.58;;
35917;SDS011;22011;59.912;30.300;2023-02-27T01:26:18;5.65;;;3.60;;
35917;SDS011;22011;59.912;30.300;2023-02-27T01:28:45;6.50;;;3.55;;
35917;SDS011;22011;59.912;30.300;2023-02-27T01:31:13;5.28;;;3.20;;
35917;SDS011;22011;59.912;30.300;2023-02-27T01:33:41;7.63;;;3.97;;
35917;SDS011;22011;59.912;30.300;2023-02-27T01:36:08;9.43;;;4.38;;
35917;SDS011;22011;59.912;30.300;2023-02-27T01:38:38;7.97;;;3.80;;
35917;SDS011;22011;59.912;30.300;2023-02-27T01:41:05;10.02;;;4.28;;
35917;SDS011;22011;59.912;30.300;2023-02-27T01:43:33;5.45;;;3.42;;
35917;SDS011;22011;59.912;30.300;2023-02-27T01:46:00;7.47;;;3.28;;
35917;SDS011;22011;59.912;30.300;2023-02-27T01:48:29;6.68;;;3.70;;
35917;SDS011;22011;59.912;30.300;2023-02-27T01:51:00;6.97;;;3.95;;
35917;SDS011;22011;59.912;30.300;2023-02-27T01:53:31;9.90;;;4.18;;
35917;SDS011;22011;59.912;30.300;2023-02-27T01:56:04;6.60;;;3.60;;
35917;SDS011;22011;59.912;30.300;2023-02-27T01:58:35;6.47;;;3.55;;
35917;SDS011;22011;59.912;30.300;2023-02-27T02:01:03;7.63;;;3.95;;
35917;SDS011;22011;59.912;30.300;2023-02-27T02:03:32;4.78;;;2.70;;
35917;SDS011;22011;59.912;30.300;2023-02-27T02:06:06;5.65;;;3.40;;
35917;SDS011;22011;59.912;30.300;2023-02-27T02:08:37;5.15;;;3.28;;
35917;SDS011;22011;59.912;30.300;2023-02-27T02:11:09;4.38;;;3.42;;
35917;SDS011;22011;59.912;30.300;2023-02-27T02:13:38;7.32;;;3.40;;
35917;SDS011;22011;59.912;30.300;2023-02-27T02:16:14;5.28;;;2.97;;
35917;SDS011;22011;59.912;30.300;2023-02-27T02:18:52;4.65;;;3.15;;
35917;SDS011;22011;59.912;30.300;2023-02-27T02:27:53;4.47;;;3.03;;
35917;SDS011;22011;59.912;30.300;2023-02-27T02:40:05;4.03;;;2.70;;
35917;SDS011;22011;59.912;30.300;2023-02-27T02:42:46;6.95;;;3.22;;
35917;SDS011;22011;59.912;30.300;2023-02-27T02:45:21;3.97;;;3.03;;
35917;SDS011;22011;59.912;30.300;2023-02-27T02:47:59;7.00;;;3.17;;
35917;SDS011;22011;59.912;30.300;2023-02-27T02:50:37;5.25;;;3.42;;
35917;SDS011;22011;59.912;30.300;2023-02-27T02:53:15;3.97;;;2.50;;
35917;SDS011;22011;59.912;30.300;2023-02-27T02:55:51;6.78;;;3.03;;
35917;SDS011;22011;59.912;30.300;2023-02-27T02:58:25;11.02;;;3.72;;
35917;SDS011;22011;59.912;30.300;2023-02-27T03:01:00;5.22;;;2.30;;
35917;SDS011;22011;59.912;30.300;2023-02-27T03:03:35;4.68;;;2.63;;
35917;SDS011;22011;59.912;30.300;2023-02-27T03:06:08;6.13;;;3.08;;
35917;SDS011;22011;59.912;30.300;2023-02-27T03:08:39;3.78;;;2.50;;
35917;SDS011;22011;59.912;30.300;2023-02-27T03:11:13;6.57;;;3.17;;
35917;SDS011;22011;59.912;30.300;2023-02-27T03:13:43;4.38;;;2.65;;
35917;SDS011;22011;59.912;30.300;2023-02-27T03:16:17;4.90;;;2.88;;
35917;SDS011;22011;59.912;30.300;2023-02-27T03:18:49;6.43;;;3.42;;
35917;SDS011;22011;59.912;30.300;2023-02-27T03:21:26;5.05;;;2.90;;
35917;SDS011;22011;59.912;30.300;2023-02-27T03:23:58;4.75;;;3.25;;
35917;SDS011;22011;59.912;30.300;2023-02-27T03:26:34;3.58;;;2.40;;
35917;SDS011;22011;59.912;30.300;2023-02-27T03:29:07;5.05;;;2.75;;
35917;SDS011;22011;59.912;30.300;2023-02-27T03:31:39;8.90;;;3.08;;
35917;SDS011;22011;59.912;30.300;2023-02-27T03:34:12;4.65;;;2.92;;
35917;SDS011;22011;59.912;30.300;2023-02-27T03:36:45;6.43;;;3.05;;
35917;SDS011;22011;59.912;30.300;2023-02-27T03:39:19;4.75;;;2.95;;
35917;SDS011;22011;59.912;30.300;2023-02-27T03:41:56;5.18;;;2.85;;
35917;SDS011;22011;59.912;30.300;2023-02-27T03:44:59;5.30;;;2.72;;
35917;SDS011;22011;59.912;30.300;2023-02-27T03:47:32;5.85;;;2.65;;
35917;SDS011;22011;59.912;30.300;2023-02-27T03:50:01;4.75;;;2.75;;
35917;SDS011;22011;59.912;30.300;2023-02-27T03:52:29;3.33;;;2.28;;
35917;SDS011;22011;59.912;30.300;2023-02-27T03:54:58;5.95;;;3.35;;
35917;SDS011;22011;59.912;30.300;2023-02-27T03:57:32;3.50;;;2.42;;
35917;SDS011;22011;59.912;30.300;2023-02-27T04:00:00;6.10;;;3.30;;
35917;SDS011;22011;59.912;30.300;2023-02-27T04:02:39;4.30;;;2.60;;
35917;SDS011;22011;59.912;30.300;2023-02-27T04:05:08;4.05;;;2.20;;
35917;SDS011;22011;59.912;30.300;2023-02-27T04:07:52;4.82;;;2.70;;
35917;SDS011;22011;59.912;30.300;2023-02-27T04:10:32;5.95;;;2.53;;
35917;SDS011;22011;59.912;30.300;2023-02-27T04:13:23;4.20;;;2.28;;
35917;SDS011;22011;59.912;30.300;2023-02-27T04:16:11;5.47;;;2.47;;
35917;SDS011;22011;59.912;30.300;2023-02-27T04:18:55;4.43;;;2.75;;
35917;SDS011;22011;59.912;30.300;2023-02-27T04:21:33;4.53;;;2.70;;
35917;SDS011;22011;59.912;30.300;2023-02-27T04:24:10;4.00;;;2.53;;
35917;SDS011;22011;59.912;30.300;2023-02-27T04:29:17;4.57;;;2.63;;
35917;SDS011;22011;59.912;30.300;2023-02-27T04:31:56;4.35;;;2.47;;
35917;SDS011;22011;59.912;30.300;2023-02-27T04:34:27;5.60;;;3.20;;
35917;SDS011;22011;59.912;30.300;2023-02-27T04:36:59;5.30;;;3.17;;
35917;SDS011;22011;59.912;30.300;2023-02-27T04:39:35;6.75;;;3.30;;
35917;SDS011;22011;59.912;30.300;2023-02-27T04:42:08;3.80;;;2.20;;
35917;SDS011;22011;59.912;30.300;2023-02-27T04:44:40;7.95;;;2.90;;
35917;SDS011;22011;59.912;30.300;2023-02-27T04:47:10;6.13;;;3.78;;
35917;SDS011;22011;59.912;30.300;2023-02-27T04:49:40;6.75;;;3.58;;
35917;SDS011;22011;59.912;30.300;2023-02-27T04:52:11;5.10;;;2.75;;
35917;SDS011;22011;59.912;30.300;2023-02-27T04:54:45;5.22;;;3.25;;
35917;SDS011;22011;59.912;30.300;2023-02-27T04:57:17;8.13;;;3.30;;
35917;SDS011;22011;59.912;30.300;2023-02-27T04:59:50;4.00;;;3.17;;
35917;SDS011;22011;59.912;30.300;2023-02-27T05:02:21;6.07;;;3.58;;
35917;SDS011;22011;59.912;30.300;2023-02-27T05:04:54;5.88;;;2.75;;
35917;SDS011;22011;59.912;30.300;2023-02-27T05:07:25;4.72;;;3.10;;
35917;SDS011;22011;59.912;30.300;2023-02-27T05:10:00;4.85;;;2.92;;
35917;SDS011;22011;59.912;30.300;2023-02-27T05:12:32;8.98;;;3.15;;
35917;SDS011;22011;59.912;30.300;2023-02-27T05:15:07;5.13;;;3.00;;
35917;SDS011;22011;59.912;30.300;2023-02-27T05:17:40;7.28;;;3.13;;
35917;SDS011;22011;59.912;30.300;2023-02-27T05:20:12;5.43;;;2.58;;
35917;SDS011;22011;59.912;30.300;2023-02-27T05:22:43;5.75;;;3.10;;
35917;SDS011;22011;59.912;30.300;2023-02-27T05:25:14;7.28;;;3.55;;
35917;SDS011;22011;59.912;30.300;2023-02-27T05:27:51;5.85;;;3.58;;
35917;SDS011;22011;59.912;30.300;2023-02-27T05:30:24;5.03;;;2.88;;
35917;SDS011;22011;59.912;30.300;2023-02-27T05:33:00;7.05;;;2.80;;
35917;SDS011;22011;59.912;30.300;2023-02-27T05:35:33;5.78;;;2.92;;
35917;SDS011;22011;59.912;30.300;2023-02-27T05:38:08;7.40;;;3.42;;
35917;SDS011;22011;59.912;30.300;2023-02-27T05:40:41;6.40;;;3.90;;
35917;SDS011;22011;59.912;30.300;2023-02-27T05:43:14;7.68;;;4.22;;
35917;SDS011;22011;59.912;30.300;2023-02-27T05:45:47;6.78;;;3.30;;
35917;SDS011;22011;59.912;30.300;2023-02-27T05:48:20;8.52;;;3.88;;
35917;SDS011;22011;59.912;30.300;2023-02-27T05:50:51;6.13;;;3.80;;
35917;SDS011;22011;59.912;30.300;2023-02-27T05:53:20;7.60;;;3.38;;
35917;SDS011;22011;59.912;30.300;2023-02-27T05:55:54;9.95;;;4.50;;
35917;SDS011;22011;59.912;30.300;2023-02-27T05:58:27;5.43;;;3.58;;
35917;SDS011;22011;59.912;30.300;2023-02-27T06:01:00;4.97;;;3.40;;
35917;SDS011;22011;59.912;30.300;2023-02-27T06:03:30;5.93;;;3.20;;
35917;SDS011;22011;59.912;30.300;2023-02-27T06:06:00;5.40;;;3.55;;
35917;SDS011;22011;59.912;30.300;2023-02-27T06:08:30;6.00;;;3.08;;
35917;SDS011;22011;59.912;30.300;2023-02-27T06:10:58;6.32;;;2.95;;
35917;SDS011;22011;59.912;30.300;2023-02-27T06:13:25;4.57;;;2.53;;
35917;SDS011;22011;59.912;30.300;2023-02-27T06:15:53;4.38;;;2.47;;
35917;SDS011;22011;59.912;30.300;2023-02-27T06:18:21;5.95;;;2.97;;
35917;SDS011;22011;59.912;30.300;2023-02-27T06:20:49;2.75;;;2.13;;
35917;SDS011;22011;59.912;30.300;2023-02-27T06:23:17;6.20;;;2.65;;
35917;SDS011;22011;59.912;30.300;2023-02-27T06:25:45;5.55;;;2.83;;
35917;SDS011;22011;59.912;30.300;2023-02-27T06:28:14;4.15;;;2.58;;
35917;SDS011;22011;59.912;30.300;2023-02-27T06:30:41;6.47;;;2.92;;
35917;SDS011;22011;59.912;30.300;2023-02-27T06:33:09;5.90;;;2.67;;
35917;SDS011;22011;59.912;30.300;2023-02-27T06:35:38;7.60;;;3.20;;
35917;SDS011;22011;59.912;30.300;2023-02-27T06:38:06;8.18;;;3.08;;
35917;SDS011;22011;59.912;30.300;2023-02-27T06:40:33;5.47;;;2.75;;
35917;SDS011;22011;59.912;30.300;2023-02-27T06:43:01;6.85;;;3.22;;
35917;SDS011;22011;59.912;30.300;2023-02-27T06:45:28;6.15;;;2.45;;
35917;SDS011;22011;59.912;30.300;2023-02-27T06:47:56;4.95;;;2.63;;
35917;SDS011;22011;59.912;30.300;2023-02-27T06:50:23;4.95;;;2.22;;
35917;SDS011;22011;59.912;30.300;2023-02-27T06:52:52;6.13;;;2.60;;
35917;SDS011;22011;59.912;30.300;2023-02-27T06:55:20;4.30;;;2.50;;
35917;SDS011;22011;59.912;30.300;2023-02-27T06:57:49;3.92;;;2.40;;
35917;SDS011;22011;59.912;30.300;2023-02-27T07:00:17;4.55;;;2.28;;
35917;SDS011;22011;59.912;30.300;2023-02-27T07:02:45;4.85;;;2.50;;
35917;SDS011;22011;59.912;30.300;2023-02-27T07:05:13;5.68;;;3.08;;
35917;SDS011;22011;59.912;30.300;2023-02-27T07:07:41;4.85;;;2.42;;
35917;SDS011;22011;59.912;30.300;2023-02-27T07:10:10;6.28;;;2.42;;
35917;SDS011;22011;59.912;30.300;2023-02-27T07:12:41;5.25;;;2.90;;
35917;SDS011;22011;59.912;30.300;2023-02-27T07:15:09;6.75;;;2.53;;
35917;SDS011;22011;59.912;30.300;2023-02-27T07:17:38;3.22;;;2.05;;
35917;SDS011;22011;59.912;30.300;2023-02-27T07:20:07;2.65;;;1.98;;
35917;SDS011;22011;59.912;30.300;2023-02-27T07:22:36;5.38;;;2.40;;
35917;SDS011;22011;59.912;30.300;2023-02-27T07:25:04;7.57;;;2.72;;
35917;SDS011;22011;59.912;30.300;2023-02-27T07:27:34;8.38;;;2.53;;
35917;SDS011;22011;59.912;30.300;2023-02-27T07:30:02;6.90;;;3.33;;
35917;SDS011;22011;59.912;30.300;2023-02-27T07:32:30;5.18;;;2.78;;
35917;SDS011;22011;59.912;30.300;2023-02-27T07:34:57;8.10;;;2.63;;
35917;SDS011;22011;59.912;30.300;2023-02-27T07:37:24;22.17;;;3.72;;
35917;SDS011;22011;59.912;30.300;2023-02-27T07:39:52;18.23;;;3.67;;
35917;SDS011;22011;59.912;30.300;2023-02-27T07:42:22;8.02;;;2.88;;
35917;SDS011;22011;59.912;30.300;2023-02-27T07:44:51;6.60;;;2.47;;
35917;SDS011;22011;59.912;30.300;2023-02-27T07:47:18;3.63;;;2.33;;
35917;SDS011;22011;59.912;30.300;2023-02-27T07:49:46;7.18;;;2.95;;
35917;SDS011;22011;59.912;30.300;2023-02-27T07:52:13;4.82;;;2.58;;
35917;SDS011;22011;59.912;30.300;2023-02-27T07:54:41;6.15;;;2.60;;
35917;SDS011;22011;59.912;30.300;2023-02-27T07:57:08;4.03;;;2.67;;
35917;SDS011;22011;59.912;30.300;2023-02-27T07:59:36;6.05;;;2.90;;
35917;SDS011;22011;59.912;30.300;2023-02-27T08:02:05;5.93;;;2.30;;
35917;SDS011;22011;59.912;30.300;2023-02-27T08:04:33;4.70;;;2.78;;
35917;SDS011;22011;59.912;30.300;2023-02-27T08:07:00;5.47;;;2.75;;
35917;SDS011;22011;59.912;30.300;2023-02-27T08:09:28;5.07;;;2.35;;
35917;SDS011;22011;59.912;30.300;2023-02-27T08:11:55;4.85;;;2.70;;
35917;SDS011;22011;59.912;30.300;2023-02-27T08:14:23;6.50;;;2.88;;
35917;SDS011;22011;59.912;30.300;2023-02-27T08:16:51;6.72;;;3.17;;
35917;SDS011;22011;59.912;30.300;2023-02-27T08:19:20;5.13;;;3.15;;
35917;SDS011;22011;59.912;30.300;2023-02-27T08:21:47;4.07;;;2.22;;
35917;SDS011;22011;59.912;30.300;2023-02-27T08:24:15;4.55;;;2.65;;
35917;SDS011;22011;59.912;30.300;2023-02-27T08:26:43;9.20;;;3.15;;
35917;SDS011;22011;59.912;30.300;2023-02-27T08:31:40;5.25;;;2.05;;
35917;SDS011;22011;59.912;30.300;2023-02-27T08:34:08;3.95;;;2.42;;
35917;SDS011;22011;59.912;30.300;2023-02-27T08:36:37;4.97;;;2.65;;
35917;SDS011;22011;59.912;30.300;2023-02-27T08:39:05;6.57;;;3.10;;
35917;SDS011;22011;59.912;30.300;2023-02-27T08:41:33;6.00;;;2.95;;
35917;SDS011;22011;59.912;30.300;2023-02-27T08:44:01;8.18;;;2.70;;
35917;SDS011;22011;59.912;30.300;2023-02-27T08:46:29;7.57;;;2.80;;
35917;SDS011;22011;59.912;30.300;2023-02-27T08:48:57;4.88;;;2.45;;
35917;SDS011;22011;59.912;30.300;2023-02-27T08:51:24;3.55;;;2.30;;
35917;SDS011;22011;59.912;30.300;2023-02-27T08:53:53;6.93;;;2.88;;
35917;SDS011;22011;59.912;30.300;2023-02-27T08:56:23;4.55;;;2.53;;
35917;SDS011;22011;59.912;30.300;2023-02-27T08:58:51;7.13;;;2.97;;
35917;SDS011;22011;59.912;30.300;2023-02-27T09:01:19;4.40;;;2.47;;
35917;SDS011;22011;59.912;30.300;2023-02-27T09:03:47;5.50;;;3.15;;
35917;SDS011;22011;59.912;30.300;2023-02-27T09:06:15;5.72;;;3.28;;
35917;SDS011;22011;59.912;30.300;2023-02-27T09:08:43;6.93;;;3.25;;
35917;SDS011;22011;59.912;30.300;2023-02-27T09:11:12;7.05;;;3.35;;
35917;SDS011;22011;59.912;30.300;2023-02-27T09:13:39;7.35;;;3.25;;
35917;SDS011;22011;59.912;30.300;2023-02-27T09:16:07;5.03;;;3.25;;
35917;SDS011;22011;59.912;30.300;2023-02-27T09:18:35;6.65;;;3.83;;
35917;SDS011;22011;59.912;30.300;2023-02-27T09:21:03;6.65;;;3.00;;
35917;SDS011;22011;59.912;30.300;2023-02-27T09:23:30;7.10;;;3.60;;
35917;SDS011;22011;59.912;30.300;2023-02-27T09:25:58;5.50;;;3.60;;
35917;SDS011;22011;59.912;30.300;2023-02-27T09:28:27;7.18;;;3.60;;
35917;SDS011;22011;59.912;30.300;2023-02-27T09:30:54;5.90;;;3.03;;
35917;SDS011;22011;59.912;30.300;2023-02-27T09:33:25;5.07;;;3.30;;
35917;SDS011;22011;59.912;30.300;2023-02-27T09:35:53;6.72;;;3.42;;
35917;SDS011;22011;59.912;30.300;2023-02-27T09:38:21;6.88;;;2.97;;
35917;SDS011;22011;59.912;30.300;2023-02-27T09:40:49;5.65;;;3.22;;
35917;SDS011;22011;59.912;30.300;2023-02-27T09:43:19;6.38;;;3.72;;
35917;SDS011;22011;59.912;30.300;2023-02-27T09:45:52;7.55;;;3.50;;
35917;SDS011;22011;59.912;30.300;2023-02-27T09:48:25;5.65;;;3.50;;
35917;SDS011;22011;59.912;30.300;2023-02-27T09:50:56;8.30;;;3.17;;
35917;SDS011;22011;59.912;30.300;2023-02-27T09:53:27;5.78;;;3.40;;
35917;SDS011;22011;59.912;30.300;2023-02-27T09:55:59;8.00;;;3.40;;
35917;SDS011;22011;59.912;30.300;2023-02-27T09:58:36;9.00;;;3.53;;
35917;SDS011;22011;59.912;30.300;2023-02-27T10:01:12;9.35;;;4.38;;
35917;SDS011;22011;59.912;30.300;2023-02-27T10:03:49;6.97;;;3.83;;
35917;SDS011;22011;59.912;30.300;2023-02-27T10:06:29;6.35;;;3.65;;
35917;SDS011;22011;59.912;30.300;2023-02-27T10:09:10;6.90;;;3.88;;
35917;SDS011;22011;59.912;30.300;2023-02-27T10:11:50;8.18;;;4.07;;
35917;SDS011;22011;59.912;30.300;2023-02-27T10:14:30;5.63;;;3.42;;
35917;SDS011;22011;59.912;30.300;2023-02-27T10:17:10;12.88;;;3.47;;
35917;SDS011;22011;59.912;30.300;2023-02-27T10:19:43;7.93;;;3.88;;
35917;SDS011;22011;59.912;30.300;2023-02-27T10:22:13;7.88;;;3.97;;
35917;SDS011;22011;59.912;30.300;2023-02-27T10:24:49;8.38;;;4.57;;
35917;SDS011;22011;59.912;30.300;2023-02-27T10:27:20;5.38;;;3.20;;
35917;SDS011;22011;59.912;30.300;2023-02-27T10:29:48;7.35;;;4.00;;
35917;SDS011;22011;59.912;30.300;2023-02-27T10:32:17;8.18;;;3.78;;
35917;SDS011;22011;59.912;30.300;2023-02-27T10:34:49;7.68;;;3.25;;
35917;SDS011;22011;59.912;30.300;2023-02-27T10:37:21;9.93;;;4.47;;
35917;SDS011;22011;59.912;30.300;2023-02-27T10:39:52;5.35;;;3.70;;
35917;SDS011;22011;59.912;30.300;2023-02-27T10:44:52;5.10;;;3.47;;
35917;SDS011;22011;59.912;30.300;2023-02-27T10:47:23;8.18;;;3.97;;
35917;SDS011;22011;59.912;30.300;2023-02-27T10:49:52;6.35;;;3.75;;
35917;SDS011;22011;59.912;30.300;2023-02-27T10:52:20;6.53;;;3.47;;
35917;SDS011;22011;59.912;30.300;2023-02-27T10:54:48;7.88;;;3.80;;
35917;SDS011;22011;59.912;30.300;2023-02-27T10:57:19;8.75;;;4.68;;
35917;SDS011;22011;59.912;30.300;2023-02-27T10:59:54;10.48;;;5.70;;
35917;SDS011;22011;59.912;30.300;2023-02-27T11:04:55;8.95;;;5.22;;
35917;SDS011;22011;59.912;30.300;2023-02-27T11:07:26;8.13;;;5.18;;
35917;SDS011;22011;59.912;30.300;2023-02-27T11:09:59;9.15;;;4.55;;
35917;SDS011;22011;59.912;30.300;2023-02-27T11:12:31;7.40;;;4.38;;
35917;SDS011;22011;59.912;30.300;2023-02-27T11:15:00;10.95;;;4.60;;
35917;SDS011;22011;59.912;30.300;2023-02-27T11:17:31;9.13;;;4.97;;
35917;SDS011;22011;59.912;30.300;2023-02-27T11:20:03;6.40;;;4.03;;
35917;SDS011;22011;59.912;30.300;2023-02-27T11:22:32;8.82;;;5.13;;
35917;SDS011;22011;59.912;30.300;2023-02-27T11:25:16;6.78;;;4.25;;
35917;SDS011;22011;59.912;30.300;2023-02-27T11:27:46;10.18;;;4.47;;
35917;SDS011;22011;59.912;30.300;2023-02-27T11:30:21;8.82;;;4.50;;
35917;SDS011;22011;59.912;30.300;2023-02-27T11:32:55;6.78;;;3.47;;
35917;SDS011;22011;59.912;30.300;2023-02-27T11:35:29;6.88;;;4.50;;
35917;SDS011;22011;59.912;30.300;2023-02-27T11:38:03;7.85;;;4.03;;
35917;SDS011;22011;59.912;30.300;2023-02-27T11:40:33;5.78;;;3.95;;
35917;SDS011;22011;59.912;30.300;2023-02-27T11:43:06;6.22;;;4.10;;
35917;SDS011;22011;59.912;30.300;2023-02-27T11:45:43;7.82;;;4.35;;
35917;SDS011;22011;59.912;30.300;2023-02-27T11:48:20;5.70;;;3.28;;
35917;SDS011;22011;59.912;30.300;2023-02-27T11:50:57;9.95;;;3.83;;
35917;SDS011;22011;59.912;30.300;2023-02-27T11:54:05;5.80;;;3.50;;
35917;SDS011;22011;59.912;30.300;2023-02-27T11:56:40;6.43;;;4.28;;
35917;SDS011;22011;59.912;30.300;2023-02-27T12:02:09;6.30;;;3.83;;
35917;SDS011;22011;59.912;30.300;2023-02-27T12:04:46;8.05;;;4.22;;
35917;SDS011;22011;59.912;30.300;2023-02-27T12:07:18;6.55;;;4.00;;
35917;SDS011;22011;59.912;30.300;2023-02-27T12:09:50;10.02;;;4.00;;
35917;SDS011;22011;59.912;30.300;2023-02-27T12:12:27;12.45;;;3.92;;
35917;SDS011;22011;59.912;30.300;2023-02-27T12:15:04;6.07;;;3.67;;
35917;SDS011;22011;59.912;30.300;2023-02-27T12:17:43;6.30;;;3.80;;
35917;SDS011;22011;59.912;30.300;2023-02-27T12:20:30;6.07;;;4.05;;
35917;SDS011;22011;59.912;30.300;2023-02-27T12:23:03;7.45;;;4.63;;
35917;SDS011;22011;59.912;30.300;2023-02-27T12:25:41;7.85;;;4.78;;
35917;SDS011;22011;59.912;30.300;2023-02-27T12:28:16;8.20;;;3.97;;
35917;SDS011;22011;59.912;30.300;2023-02-27T12:30:59;9.27;;;4.57;;
35917;SDS011;22011;59.912;30.300;2023-02-27T12:33:35;9.07;;;4.75;;
35917;SDS011;22011;59.912;30.300;2023-02-27T12:36:10;7.35;;;3.85;;
35917;SDS011;22011;59.912;30.300;2023-02-27T12:38:39;8.23;;;4.18;;
35917;SDS011;22011;59.912;30.300;2023-02-27T12:41:20;5.90;;;4.15;;
35917;SDS011;22011;59.912;30.300;2023-02-27T12:44:02;5.13;;;2.83;;
35917;SDS011;22011;59.912;30.300;2023-02-27T12:46:44;8.00;;;3.50;;
35917;SDS011;22011;59.912;30.300;2023-02-27T12:49:21;6.70;;;3.65;;
35917;SDS011;22011;59.912;30.300;2023-02-27T12:51:59;5.33;;;2.77;;
35917;SDS011;22011;59.912;30.300;2023-02-27T12:54:38;7.25;;;3.00;;
35917;SDS011;22011;59.912;30.300;2023-02-27T12:57:18;5.07;;;3.40;;
35917;SDS011;22011;59.912;30.300;2023-02-27T13:02:49;7.40;;;2.92;;
35917;SDS011;22011;59.912;30.300;2023-02-27T13:05:26;7.25;;;3.33;;
35917;SDS011;22011;59.912;30.300;2023-02-27T13:08:01;6.95;;;2.92;;
35917;SDS011;22011;59.912;30.300;2023-02-27T13:10:40;5.50;;;3.10;;
35917;SDS011;22011;59.912;30.300;2023-02-27T13:13:15;6.55;;;3.00;;
35917;SDS011;22011;59.912;30.300;2023-02-27T13:15:48;5.13;;;2.95;;
35917;SDS011;22011;59.912;30.300;2023-02-27T13:18:27;5.03;;;2.75;;
35917;SDS011;22011;59.912;30.300;2023-02-27T13:21:05;4.40;;;2.83;;
35917;SDS011;22011;59.912;30.300;2023-02-27T13:23:42;4.55;;;3.00;;
35917;SDS011;22011;59.912;30.300;2023-02-27T13:26:18;7.57;;;3.00;;
35917;SDS011;22011;59.912;30.300;2023-02-27T13:28:49;4.78;;;3.33;;
35917;SDS011;22011;59.912;30.300;2023-02-27T13:31:21;5.82;;;3.20;;
35917;SDS011;22011;59.912;30.300;2023-02-27T13:33:59;5.03;;;2.97;;
35917;SDS011;22011;59.912;30.300;2023-02-27T13:36:34;8.48;;;2.55;;
35917;SDS011;22011;59.912;30.300;2023-02-27T13:45:41;7.13;;;3.10;;
35917;SDS011;22011;59.912;30.300;2023-02-27T13:51:05;5.45;;;2.63;;
35917;SDS011;22011;59.912;30.300;2023-02-27T13:53:37;3.90;;;2.63;;
35917;SDS011;22011;59.912;30.300;2023-02-27T13:56:19;3.75;;;2.55;;
35917;SDS011;22011;59.912;30.300;2023-02-27T13:58:48;4.40;;;2.83;;
35917;SDS011;22011;59.912;30.300;2023-02-27T14:01:19;4.38;;;2.35;;
35917;SDS011;22011;59.912;30.300;2023-02-27T14:03:52;5.57;;;3.00;;
35917;SDS011;22011;59.912;30.300;2023-02-27T14:06:23;4.85;;;2.60;;
35917;SDS011;22011;59.912;30.300;2023-02-27T14:08:53;3.58;;;2.60;;
35917;SDS011;22011;59.912;30.300;2023-02-27T14:11:25;4.63;;;3.17;;
35917;SDS011;22011;59.912;30.300;2023-02-27T14:14:06;5.13;;;3.03;;
35917;SDS011;22011;59.912;30.300;2023-02-27T14:16:50;5.15;;;3.78;;
35917;SDS011;22011;59.912;30.300;2023-02-27T14:19:27;5.32;;;2.92;;
35917;SDS011;22011;59.912;30.300;2023-02-27T14:22:33;5.03;;;2.80;;
35917;SDS011;22011;59.912;30.300;2023-02-27T14:25:09;8.38;;;2.92;;
35917;SDS011;22011;59.912;30.300;2023-02-27T14:27:52;4.25;;;2.45;;
35917;SDS011;22011;59.912;30.300;2023-02-27T14:30:27;4.15;;;2.50;;
35917;SDS011;22011;59.912;30.300;2023-02-27T14:32:59;4.60;;;2.33;;
35917;SDS011;22011;59.912;30.300;2023-02-27T14:35:33;3.30;;;2.40;;
35917;SDS011;22011;59.912;30.300;2023-02-27T14:38:05;10.85;;;2.53;;
35917;SDS011;22011;59.912;30.300;2023-02-27T14:40:38;3.83;;;2.63;;
35917;SDS011;22011;59.912;30.300;2023-02-27T14:43:19;5.05;;;3.00;;
35917;SDS011;22011;59.912;30.300;2023-02-27T14:46:02;7.45;;;3.85;;
35917;SDS011;22011;59.912;30.300;2023-02-27T14:48:33;4.40;;;2.97;;
35917;SDS011;22011;59.912;30.300;2023-02-27T14:51:02;6.63;;;2.93;;
35917;SDS011;22011;59.912;30.300;2023-02-27T14:53:31;9.82;;;3.33;;
35917;SDS011;22011;59.912;30.300;2023-02-27T14:56:00;5.10;;;3.40;;
35917;SDS011;22011;59.912;30.300;2023-02-27T14:58:29;9.57;;;3.13;;
35917;SDS011;22011;59.912;30.300;2023-02-27T15:00:58;4.97;;;3.08;;
35917;SDS011;22011;59.912;30.300;2023-02-27T15:03:31;5.18;;;3.92;;
35917;SDS011;22011;59.912;30.300;2023-02-27T15:06:04;6.97;;;3.35;;
35917;SDS011;22011;59.912;30.300;2023-02-27T15:08:40;4.80;;;3.30;;
35917;SDS011;22011;59.912;30.300;2023-02-27T15:11:13;7.18;;;3.35;;
35917;SDS011;22011;59.912;30.300;2023-02-27T15:13:44;6.22;;;3.58;;
35917;SDS011;22011;59.912;30.300;2023-02-27T15:16:30;6.25;;;3.75;;
35917;SDS011;22011;59.912;30.300;2023-02-27T15:21:30;4.18;;;2.80;;
35917;SDS011;22011;59.912;30.300;2023-02-27T15:24:00;4.60;;;3.10;;
35917;SDS011;22011;59.912;30.300;2023-02-27T15:26:33;4.88;;;2.60;;
35917;SDS011;22011;59.912;30.300;2023-02-27T15:29:04;5.25;;;2.45;;
35917;SDS011;22011;59.912;30.300;2023-02-27T15:31:33;5.75;;;2.63;;
35917;SDS011;22011;59.912;30.300;2023-02-27T15:34:01;6.82;;;3.03;;
35917;SDS011;22011;59.912;30.300;2023-02-27T15:36:30;7.78;;;3.05;;
35917;SDS011;22011;59.912;30.300;2023-02-27T15:39:07;5.05;;;2.78;;
35917;SDS011;22011;59.912;30.300;2023-02-27T15:41:42;3.95;;;2.50;;
35917;SDS011;22011;59.912;30.300;2023-02-27T15:44:15;8.57;;;2.38;;
35917;SDS011;22011;59.912;30.300;2023-02-27T15:46:44;4.32;;;2.72;;